createdAt,value
2022-08-18T00:02:30.327Z,25.80
2022-08-18T00:06:33.951Z,25.80
2022-08-18T00:10:36.696Z,25.80
2022-08-18T00:14:39.782Z,25.70
2022-08-18T00:18:43.352Z,25.70
2022-08-18T00:22:49.427Z,25.60
2022-08-18T00:26:52.951Z,25.50
2022-08-18T00:30:56.086Z,25.40
2022-08-18T00:35:07.855Z,25.40
2022-08-18T00:39:10.739Z,25.30
2022-08-18T00:43:19.299Z,25.10
2022-08-18T00:47:41.301Z,25.10
2022-08-18T00:51:51.806Z,25.00
2022-08-18T00:55:56.658Z,25.00
2022-08-18T01:00:11.791Z,25.00
2022-08-18T01:04:35.925Z,25.00
2022-08-18T01:08:41.195Z,25.00
2022-08-18T01:12:50.941Z,25.00
2022-08-18T01:17:12.372Z,25.00
2022-08-18T01:21:43.258Z,24.90
2022-08-18T01:26:04.140Z,24.90
2022-08-18T01:30:10.531Z,24.90
2022-08-18T01:34:13.733Z,24.90
2022-08-18T01:38:19.171Z,24.80
2022-08-18T01:42:22.440Z,24.70
2022-08-18T01:46:26.010Z,24.70
2022-08-18T01:50:30.354Z,24.70
2022-08-18T01:54:33.804Z,24.70
2022-08-18T01:58:37.898Z,24.50
2022-08-18T02:02:42.047Z,24.50
2022-08-18T02:06:47.779Z,24.50
2022-08-18T02:10:50.809Z,24.50
2022-08-18T02:14:53.652Z,24.40
2022-08-18T02:18:56.858Z,24.20
2022-08-18T02:23:02.038Z,24.20
2022-08-18T02:27:05.605Z,24.20
2022-08-18T02:31:11.766Z,24.10
2022-08-18T02:35:14.774Z,24.00
2022-08-18T02:39:18.159Z,24.00
2022-08-18T02:43:20.974Z,24.00
2022-08-18T02:47:24.585Z,24.00
2022-08-18T02:51:27.917Z,24.20
2022-08-18T02:55:31.122Z,24.70
2022-08-18T02:59:34.118Z,25.10
2022-08-18T03:03:37.476Z,25.00
2022-08-18T03:07:40.493Z,24.90
2022-08-18T03:11:44.901Z,24.90
2022-08-18T03:15:51.176Z,24.80
2022-08-18T03:19:57.761Z,24.70
2022-08-18T03:24:02.847Z,24.70
2022-08-18T03:28:07.062Z,24.70
2022-08-18T03:32:10.821Z,24.60
2022-08-18T03:36:17.308Z,24.50
2022-08-18T03:40:20.422Z,24.50
2022-08-18T03:44:23.799Z,24.50
2022-08-18T03:48:26.753Z,24.40
2022-08-18T03:52:30.979Z,24.30
2022-08-18T03:56:38.405Z,24.30
2022-08-18T04:00:42.056Z,24.20
2022-08-18T04:04:44.909Z,24.10
2022-08-18T04:08:50.538Z,24.10
2022-08-18T04:12:53.375Z,24.00
2022-08-18T04:16:57.108Z,23.90
2022-08-18T04:21:07.762Z,23.90
2022-08-18T04:25:10.609Z,24.00
2022-08-18T04:29:18.895Z,23.90
2022-08-18T04:33:21.642Z,23.90
2022-08-18T04:37:24.540Z,24.00
2022-08-18T04:41:30.695Z,24.00
2022-08-18T04:45:34.754Z,24.00
2022-08-18T04:49:38.327Z,23.90
2022-08-18T04:53:46.438Z,23.90
2022-08-18T04:57:49.802Z,24.00
2022-08-18T05:01:54.369Z,24.00
2022-08-18T05:06:03.731Z,24.00
2022-08-18T05:10:31.653Z,24.00
2022-08-18T05:14:46.164Z,24.00
2022-08-18T05:18:57.810Z,24.10
2022-08-18T05:23:04.864Z,24.10
2022-08-18T05:27:17.449Z,24.20
2022-08-18T05:31:33.201Z,24.10
2022-08-18T05:35:52.160Z,24.30
2022-08-18T05:40:10.844Z,24.50
2022-08-18T05:44:27.192Z,24.50
2022-08-18T05:48:43.149Z,24.70
2022-08-18T05:52:57.925Z,24.60
2022-08-18T05:57:08.095Z,24.70
2022-08-18T06:01:27.565Z,24.90
2022-08-18T06:05:45.068Z,25.10
2022-08-18T06:09:54.470Z,25.40
2022-08-18T06:13:59.901Z,25.70
2022-08-18T06:18:30.991Z,25.90
2022-08-18T06:22:56.420Z,26.00
2022-08-18T06:27:20.325Z,26.10
2022-08-18T06:31:50.338Z,26.20
2022-08-18T06:36:03.286Z,26.30
2022-08-18T06:40:07.178Z,26.50
2022-08-18T06:44:32.092Z,26.60
2022-08-18T06:48:48.267Z,26.90
2022-08-18T06:52:53.284Z,27.00
2022-08-18T06:56:58.023Z,27.30
2022-08-18T07:01:05.395Z,27.50
2022-08-18T07:05:15.781Z,27.80
2022-08-18T07:09:24.952Z,28.40
2022-08-18T07:13:31.605Z,28.70
2022-08-18T07:17:43.689Z,29.00
2022-08-18T07:22:01.294Z,29.30
2022-08-18T07:26:16.645Z,29.50
2022-08-18T07:30:19.678Z,29.90
2022-08-18T07:34:38.659Z,30.00
2022-08-18T07:39:10.237Z,30.40
2022-08-18T07:43:17.439Z,30.60
2022-08-18T07:47:29.511Z,30.50
2022-08-18T07:51:47.361Z,30.40
2022-08-18T07:55:58.126Z,30.40
2022-08-18T08:00:18.749Z,30.50
2022-08-18T08:04:53.613Z,30.60
2022-08-18T08:09:29.955Z,30.70
2022-08-18T08:13:54.642Z,30.70
2022-08-18T08:18:11.025Z,30.80
2022-08-18T08:22:34.416Z,30.90
2022-08-18T08:27:09.448Z,30.90
2022-08-18T08:31:37.260Z,30.80
2022-08-18T08:35:51.067Z,30.60
2022-08-18T08:40:02.021Z,30.50
2022-08-18T08:44:22.587Z,30.40
2022-08-18T08:48:29.328Z,30.30
2022-08-18T08:53:03.241Z,30.20
2022-08-18T08:57:07.701Z,30.10
2022-08-18T09:01:37.903Z,30.00
2022-08-18T09:06:01.330Z,30.10
2022-08-18T09:10:25.504Z,30.00
2022-08-18T09:15:05.927Z,30.00
2022-08-18T09:19:45.172Z,29.90
2022-08-18T09:24:06.465Z,29.50
2022-08-18T09:28:35.804Z,28.70
2022-08-18T09:32:58.888Z,26.10
2022-08-18T09:37:27.786Z,24.80
2022-08-18T09:41:49.081Z,23.90
2022-08-18T09:45:59.762Z,23.30
2022-08-18T09:50:04.011Z,22.60
2022-08-18T09:54:21.163Z,22.40
2022-08-18T09:58:25.682Z,22.30
2022-08-18T10:02:37.246Z,22.20
2022-08-18T10:06:48.381Z,22.20
2022-08-18T10:11:01.608Z,22.30
2022-08-18T10:15:41.554Z,22.30
2022-08-18T10:20:28.882Z,22.50
2022-08-18T10:25:19.822Z,22.50
2022-08-18T10:29:30.132Z,22.50
2022-08-18T10:34:17.226Z,22.50
2022-08-18T10:38:55.126Z,22.30
2022-08-18T10:43:46.048Z,22.20
2022-08-18T10:47:45.119Z,22.10
2022-08-18T10:52:07.695Z,22.10
2022-08-18T10:56:27.457Z,22.20
2022-08-18T11:01:01.021Z,22.20
2022-08-18T11:05:11.167Z,22.30
2022-08-18T11:09:27.096Z,22.30
2022-08-18T11:13:48.318Z,22.20
2022-08-18T11:18:03.635Z,22.20
2022-08-18T11:27:58.156Z,22.00
2022-08-18T11:32:30.583Z,22.00
2022-08-18T11:36:40.563Z,22.00
2022-08-18T11:41:12.000Z,22.00
2022-08-18T11:45:23.496Z,22.00
2022-08-18T11:49:33.766Z,21.90
2022-08-18T11:53:57.996Z,22.00
2022-08-18T11:58:03.714Z,22.10
2022-08-18T12:02:20.306Z,22.20
2022-08-18T12:06:30.695Z,22.30
2022-08-18T12:10:34.167Z,22.50
2022-08-18T12:15:02.968Z,22.80
2022-08-18T12:19:15.954Z,23.20
2022-08-18T12:23:22.824Z,23.60
2022-08-18T12:27:31.943Z,24.00
2022-08-18T12:31:42.348Z,24.10
2022-08-18T12:35:53.925Z,24.20
2022-08-18T12:40:00.958Z,24.40
2022-08-18T12:44:04.151Z,24.50
2022-08-18T12:48:13.086Z,24.50
2022-08-18T12:52:17.278Z,24.80
2022-08-18T12:56:24.770Z,25.10
2022-08-18T13:00:31.327Z,25.20
2022-08-18T13:04:35.562Z,25.40
2022-08-18T13:08:47.830Z,25.70
2022-08-18T13:12:52.998Z,26.00
2022-08-18T13:16:56.418Z,26.10
2022-08-18T13:21:00.285Z,26.20
2022-08-18T13:25:05.735Z,26.30
2022-08-18T13:29:10.150Z,26.60
2022-08-18T13:33:34.896Z,27.00
2022-08-18T13:37:36.907Z,27.20
2022-08-18T13:41:42.397Z,27.50
2022-08-18T13:45:53.439Z,27.50
2022-08-18T13:50:00.258Z,27.50
2022-08-18T13:54:30.052Z,27.70
2022-08-18T13:58:28.477Z,28.00
2022-08-18T14:02:31.441Z,28.30
2022-08-18T14:06:34.942Z,28.40
2022-08-18T14:10:38.705Z,28.60
2022-08-18T14:14:41.711Z,28.80
2022-08-18T14:18:45.779Z,29.00
2022-08-18T14:23:10.741Z,29.00
2022-08-18T14:27:13.985Z,29.20
2022-08-18T14:31:20.577Z,29.20
2022-08-18T14:35:33.947Z,29.30
2022-08-18T14:39:50.440Z,29.50
2022-08-18T14:44:13.042Z,29.70
2022-08-18T14:48:21.685Z,29.80
2022-08-18T14:52:25.539Z,30.00
2022-08-18T14:56:33.486Z,30.40
2022-08-18T15:00:53.616Z,30.50
2022-08-18T15:04:58.022Z,30.70
2022-08-18T15:09:04.294Z,30.80
2022-08-18T15:13:08.519Z,30.70
2022-08-18T15:17:13.449Z,30.80
2022-08-18T15:21:39.067Z,31.00
2022-08-18T15:25:45.267Z,31.30
2022-08-18T15:29:48.165Z,31.50
2022-08-18T15:33:54.766Z,31.60
2022-08-18T15:38:00.901Z,31.60
2022-08-18T15:42:11.453Z,31.50
2022-08-18T15:46:16.799Z,31.50
2022-08-18T15:50:25.634Z,31.30
2022-08-18T15:54:28.957Z,31.00
2022-08-18T15:58:33.035Z,30.80
2022-08-18T16:02:39.017Z,30.60
2022-08-18T16:06:45.226Z,30.40
2022-08-18T16:10:49.886Z,30.20
2022-08-18T16:15:01.274Z,30.00
2022-08-18T16:19:06.551Z,30.00
2022-08-18T16:23:10.899Z,29.90
2022-08-18T16:27:14.002Z,29.80
2022-08-18T16:31:17.127Z,29.60
2022-08-18T16:35:21.652Z,29.50
2022-08-18T16:39:24.550Z,29.10
2022-08-18T16:43:27.497Z,28.90
2022-08-18T16:47:39.022Z,28.60
2022-08-18T16:51:46.081Z,28.50
2022-08-18T16:55:52.195Z,28.20
2022-08-18T17:00:17.313Z,27.80
2022-08-18T17:04:33.688Z,27.50
2022-08-18T17:08:38.110Z,27.30
2022-08-18T17:12:44.070Z,27.20
2022-08-18T17:16:49.059Z,27.20
2022-08-18T17:20:52.481Z,27.20
2022-08-18T17:25:03.168Z,27.20
2022-08-18T17:29:10.580Z,27.20
2022-08-18T17:33:31.134Z,27.10
2022-08-18T17:37:37.617Z,27.00
2022-08-18T17:42:00.547Z,27.00
2022-08-18T17:46:29.295Z,26.90
2022-08-18T17:51:15.480Z,26.80
2022-08-18T17:55:43.430Z,26.60
2022-08-18T18:00:11.594Z,26.40
2022-08-18T18:04:14.906Z,26.40
2022-08-18T18:08:20.556Z,26.40
2022-08-18T18:12:26.495Z,26.30
2022-08-18T18:16:37.952Z,26.10
2022-08-18T18:20:44.244Z,26.10
2022-08-18T18:24:54.808Z,26.00
2022-08-18T18:29:33.396Z,26.10
2022-08-18T18:33:39.002Z,26.20
2022-08-18T18:37:59.780Z,26.30
2022-08-18T18:42:19.434Z,26.40
2022-08-18T18:46:45.636Z,26.50
2022-08-18T18:51:14.077Z,26.70
2022-08-18T18:55:39.647Z,26.70
2022-08-18T18:59:49.177Z,26.80
2022-08-18T19:04:12.653Z,26.80
2022-08-18T19:08:36.001Z,26.90
2022-08-18T19:12:52.961Z,27.00
2022-08-18T19:17:21.336Z,26.90
2022-08-18T19:22:02.704Z,26.90
2022-08-18T19:25:54.278Z,26.80
2022-08-18T19:30:01.494Z,26.60
2022-08-18T19:34:11.422Z,26.50
2022-08-18T19:38:56.257Z,26.30
2022-08-18T19:43:06.435Z,26.10
2022-08-18T19:47:16.806Z,26.00
2022-08-18T19:51:35.567Z,25.90
2022-08-18T19:55:54.066Z,25.90
2022-08-18T20:00:15.900Z,25.90
2022-08-18T20:04:43.677Z,25.90
2022-08-18T20:09:09.277Z,25.90
2022-08-18T20:13:36.219Z,25.70
2022-08-18T20:17:54.381Z,25.70
2022-08-18T20:22:06.818Z,25.60
2022-08-18T20:32:36.458Z,25.90
2022-08-18T20:42:45.296Z,25.40
2022-08-18T21:03:02.269Z,23.90
2022-08-18T21:07:11.981Z,23.50
2022-08-18T21:11:34.349Z,22.70
2022-08-18T21:15:38.983Z,22.00
2022-08-18T21:19:43.441Z,21.50
2022-08-18T21:23:53.780Z,21.20
2022-08-18T21:27:57.318Z,21.10
2022-08-18T21:32:14.778Z,20.70
2022-08-18T21:36:20.335Z,20.50
2022-08-18T21:40:34.686Z,20.50
2022-08-18T21:44:44.899Z,20.40
2022-08-18T21:48:51.114Z,20.30
2022-08-18T21:53:01.351Z,20.20
2022-08-18T21:57:24.456Z,20.10
2022-08-18T22:01:31.748Z,20.10
2022-08-18T22:05:58.874Z,20.10
2022-08-18T22:10:44.990Z,20.20
2022-08-18T22:14:54.472Z,20.10
2022-08-18T22:19:20.325Z,20.00
2022-08-18T22:23:55.777Z,20.10
2022-08-18T22:28:00.525Z,20.00
2022-08-18T22:32:04.055Z,20.00
2022-08-18T22:36:07.215Z,20.20
2022-08-18T22:40:13.981Z,20.40
2022-08-18T22:44:16.856Z,20.50
2022-08-18T22:48:20.094Z,20.70
2022-08-18T22:52:31.390Z,20.80
2022-08-18T22:56:35.792Z,20.90
2022-08-18T23:00:40.846Z,20.80
2022-08-18T23:04:45.898Z,20.70
2022-08-18T23:08:55.068Z,20.60
2022-08-18T23:13:04.118Z,20.70
2022-08-18T23:17:07.862Z,20.60
2022-08-18T23:21:10.746Z,20.60
2022-08-18T23:25:33.624Z,20.70
2022-08-18T23:29:36.695Z,20.70
2022-08-18T23:33:41.341Z,20.70
2022-08-18T23:37:44.136Z,20.80
2022-08-18T23:41:46.890Z,20.80
2022-08-18T23:45:52.134Z,20.80
2022-08-18T23:49:54.921Z,20.80
2022-08-18T23:54:00.334Z,20.60
2022-08-18T23:58:04.030Z,20.50
